EGMD/LYX METAR and TAF weather

Enter ICAO airport designator
Station Type Date Time Source
EGMD METAR 2018/10/21 03:20 UTC NOAA

EGMD 210320Z AUTO 00000KT 9999 NCD 10/09 Q1029


Station Type Date Time Source
EGMD Decoded METAR 2018/10/21 03:20 UTC NOAA

Lydd Airport , United Kingdom (EGMD) 50-57N 000-56E
Oct 20, 2018 - 11:20 PM EDT / 2018.10.21 0320 UTC
Wind: Calm:0
Visibility: greater than 7 mile(s):0
Temperature: 50 F (10 C)
Dew Point: 48 F (9 C)
Relative Humidity: 93%
Pressure (altimeter): 30.39 in. Hg (1029 hPa)
ob: EGMD 210320Z AUTO 00000KT 9999 NCD 10/09 Q1029
cycle: 3

Station Type Date Time Source
EGMD TAF UTC NOAA

Error!


Example: see airport list